Andersonville, Georgia
Current Conditions -  °F | °C
As of 9:35 PM on Sunday 21 Dec 2014 (Local Time) from KACJ Reporting Station
Haze Haze  
Wind Chill: 41°   Ceiling: 300
Heat Index: 46°   Visibility: 2.5mi
Dew Point: 46°   Wind: 12mph
Humidity: 100%   Direction: 90°E
Pressure: 30.08"   Gusts: NA
Location:  32.2°N, 84.14°W
Report Text: KACJ 220235Z AUTO 09010KT 2 1/2SM BR OVC003 08/08 A3008 RMK AO2 LTG DSNT S
Loading
Personal Weather Stations






























Interactive Weather Map New forecast layout! Learn more

10-Day Weather Forecast

Advertisements
Track Severe Weather on mobile